Time;durP1;ratioP1;P1;durP2;ratioP2;P2;SDS_P1;SDS_P2;PMS_P1;PMS_P2;Temp;Humidity;BMP_temperature;BMP_pressure;BME280_temperature;BME280_humidity;BME280_pressure;Samples;Min_cycle;Max_cycle;Signal;HPM_P1;HPM_P2
2022/10/01 00:02:18;;;;;;;2.10;0.90;;;;;;;;;;5049475;28;20033;-73
2022/10/01 00:04:43;;;;;;;5.38;1.17;;;;;;;;;;5049508;28;20033;-72
2022/10/01 00:07:13;;;;;;;3.25;1.10;;;;;;;;;;5050202;28;20025;-73
2022/10/01 00:09:39;;;;;;;3.63;1.00;;;;;;;;;;5050185;28;20033;-74
2022/10/01 00:12:05;;;;;;;2.25;1.10;;;;;;;;;;5049791;28;20184;-74
2022/10/01 00:14:30;;;;;;;2.22;1.00;;;;;;;;;;5049792;28;20057;-73
2022/10/01 00:16:55;;;;;;;5.30;1.20;;;;;;;;;;5049779;28;20391;-76
2022/10/01 00:19:21;;;;;;;1.90;0.80;;;;;;;;;;5031767;28;20033;-76
2022/10/01 00:21:47;;;;;;;2.35;0.90;;;;;;;;;;5049771;28;20083;-74
2022/10/01 00:24:12;;;;;;;1.92;0.90;;;;;;;;;;5049654;28;20021;-73
2022/10/01 00:26:38;;;;;;;3.17;1.08;;;;;;;;;;5049894;28;20029;-74
2022/10/01 00:29:06;;;;;;;4.03;1.00;;;;;;;;;;5049753;28;20025;-73
2022/10/01 00:31:32;;;;;;;1.60;0.90;;;;;;;;;;5049487;28;20139;-74
2022/10/01 00:33:59;;;;;;;3.58;1.00;;;;;;;;;;5049491;28;20021;-76
2022/10/01 00:36:26;;;;;;;3.60;0.90;;;;;;;;;;5049602;28;20082;-75
2022/10/01 00:38:51;;;;;;;2.80;0.98;;;;;;;;;;5031633;28;20037;-75
2022/10/01 00:41:18;;;;;;;1.77;0.85;;;;;;;;;;5049183;28;20052;-73
2022/10/01 00:43:48;;;;;;;3.03;0.90;;;;;;;;;;5049632;28;20025;-72
2022/10/01 00:46:29;;;;;;;1.67;0.85;;;;;;;;;;5049410;28;20033;-73
2022/10/01 00:49:05;;;;;;;2.47;1.00;;;;;;;;;;5049637;28;20121;-73
2022/10/01 00:51:38;;;;;;;2.70;1.08;;;;;;;;;;5049624;28;20399;-73
2022/10/01 00:54:14;;;;;;;5.00;0.90;;;;;;;;;;5049301;28;20032;-74
2022/10/01 00:56:41;;;;;;;2.45;0.88;;;;;;;;;;5049587;28;20025;-74
2022/10/01 00:59:06;;;;;;;3.53;0.80;;;;;;;;;;5049391;28;20595;-75
2022/10/01 01:01:35;;;;;;;1.27;0.70;;;;;;;;;;5049373;28;20108;-73
2022/10/01 01:04:01;;;;;;;2.22;0.88;;;;;;;;;;5049451;28;20029;-73
2022/10/01 01:06:26;;;;;;;2.35;0.85;;;;;;;;;;5049425;28;20530;-73
2022/10/01 01:08:54;;;;;;;2.70;0.93;;;;;;;;;;5031569;28;20400;-73
2022/10/01 01:11:46;;;;;;;2.90;1.10;;;;;;;;;;5048938;28;20063;-74
2022/10/01 01:14:32;;;;;;;3.17;0.88;;;;;;;;;;5049555;28;20087;-72
2022/10/01 01:17:07;;;;;;;6.72;1.25;;;;;;;;;;5050196;28;20420;-73
2022/10/01 01:19:46;;;;;;;1.90;0.80;;;;;;;;;;5052979;28;20039;-77
2022/10/01 01:22:15;;;;;;;2.25;0.90;;;;;;;;;;5052703;28;20030;-75
2022/10/01 01:24:43;;;;;;;2.53;0.90;;;;;;;;;;5052604;28;20075;-74
2022/10/01 01:27:08;;;;;;;1.95;0.90;;;;;;;;;;5052796;28;20086;-73
2022/10/01 01:30:03;;;;;;;2.70;0.85;;;;;;;;;;5052651;28;20460;-76
2022/10/01 01:32:38;;;;;;;2.10;0.90;;;;;;;;;;5052375;28;20017;-74
2022/10/01 01:35:07;;;;;;;2.40;0.95;;;;;;;;;;5052686;28;20052;-73
2022/10/01 01:37:39;;;;;;;5.38;1.00;;;;;;;;;;5053024;28;20037;-74
2022/10/01 01:40:10;;;;;;;4.18;0.93;;;;;;;;;;5052245;28;20514;-75
2022/10/01 01:42:36;;;;;;;;;;;;;;;;;;5052600;28;20514;-76
2022/10/01 01:45:08;;;;;;;2.45;0.80;;;;;;;;;;5052214;28;19920;-77
2022/10/01 01:47:35;;;;;;;3.90;1.00;;;;;;;;;;5052290;28;20035;-75
2022/10/01 01:50:02;;;;;;;4.70;1.15;;;;;;;;;;5052092;28;20443;-75
2022/10/01 01:52:28;;;;;;;3.47;0.95;;;;;;;;;;5052035;28;20028;-76
2022/10/01 01:54:55;;;;;;;1.30;0.70;;;;;;;;;;5052193;28;20032;-76
2022/10/01 01:57:21;;;;;;;2.10;0.80;;;;;;;;;;5052280;28;20029;-73
2022/10/01 01:59:46;;;;;;;4.32;1.10;;;;;;;;;;5052365;28;20033;-75
2022/10/01 02:02:18;;;;;;;3.17;1.00;;;;;;;;;;5051530;28;20562;-76
2022/10/01 02:04:47;;;;;;;2.60;0.98;;;;;;;;;;5051964;28;20488;-74
2022/10/01 02:07:41;;;;;;;2.03;0.80;;;;;;;;;;5051889;28;20044;-75
2022/10/01 02:10:18;;;;;;;2.70;1.00;;;;;;;;;;5052267;28;20036;-76
2022/10/01 02:13:10;;;;;;;1.70;0.80;;;;;;;;;;5033946;28;20025;-74
2022/10/01 02:16:03;;;;;;;2.78;0.90;;;;;;;;;;5051848;28;20021;-75
2022/10/01 02:18:58;;;;;;;3.40;0.90;;;;;;;;;;5051589;28;20063;-75
2022/10/01 02:21:30;;;;;;;3.78;1.00;;;;;;;;;;5042951;28;20067;-73
2022/10/01 02:24:01;;;;;;;2.00;1.00;;;;;;;;;;5051640;28;20036;-73
2022/10/01 02:26:30;;;;;;;2.60;1.08;;;;;;;;;;5051528;28;20029;-74
2022/10/01 02:29:00;;;;;;;2.15;0.88;;;;;;;;;;5051323;28;20032;-74
2022/10/01 02:31:28;;;;;;;3.45;0.90;;;;;;;;;;5051274;28;20107;-75
2022/10/01 02:33:54;;;;;;;2.58;0.90;;;;;;;;;;5051517;28;20035;-76
2022/10/01 02:36:21;;;;;;;2.78;1.10;;;;;;;;;;5051267;28;20530;-76
2022/10/01 02:38:49;;;;;;;4.40;0.95;;;;;;;;;;5051338;28;20031;-75
2022/10/01 02:41:19;;;;;;;2.50;1.02;;;;;;;;;;5050789;28;20048;-76
2022/10/01 02:43:57;;;;;;;3.00;0.90;;;;;;;;;;5051355;28;20082;-75
2022/10/01 02:46:43;;;;;;;4.20;1.15;;;;;;;;;;5051063;28;20385;-75
2022/10/01 02:49:09;;;;;;;4.68;0.98;;;;;;;;;;5051078;28;20083;-75
2022/10/01 02:51:56;;;;;;;4.13;1.00;;;;;;;;;;5033277;28;20481;-76
2022/10/01 02:54:29;;;;;;;2.58;0.90;;;;;;;;;;5050945;28;20488;-75
2022/10/01 02:59:39;;;;;;;2.13;0.80;;;;;;;;;;5051355;28;20043;-73
2022/10/01 03:02:05;;;;;;;4.38;1.10;;;;;;;;;;5050419;28;20033;-73
2022/10/01 03:04:30;;;;;;;2.38;0.90;;;;;;;;;;5033148;28;20449;-73
2022/10/01 03:07:02;;;;;;;4.63;1.27;;;;;;;;;;5050824;28;20021;-72
2022/10/01 03:09:28;;;;;;;4.97;1.30;;;;;;;;;;5050864;28;20028;-73
2022/10/01 03:11:53;;;;;;;2.45;1.00;;;;;;;;;;5050490;28;20033;-73
2022/10/01 03:14:19;;;;;;;3.25;1.20;;;;;;;;;;5032544;28;20029;-73
2022/10/01 03:16:44;;;;;;;3.10;0.90;;;;;;;;;;5050574;28;20601;-72
2022/10/01 03:19:10;;;;;;;3.63;0.90;;;;;;;;;;5050875;28;20028;-73
2022/10/01 03:21:35;;;;;;;2.03;0.80;;;;;;;;;;5050474;28;20025;-73
2022/10/01 03:24:01;;;;;;;1.98;0.90;;;;;;;;;;5050958;28;20025;-74
2022/10/01 03:26:26;;;;;;;2.38;0.80;;;;;;;;;;5050333;28;20476;-73
2022/10/01 03:28:51;;;;;;;4.70;0.80;;;;;;;;;;5050742;28;20673;-72
2022/10/01 03:31:17;;;;;;;3.13;0.95;;;;;;;;;;5050010;28;20017;-73
2022/10/01 03:33:42;;;;;;;1.92;0.90;;;;;;;;;;5050466;28;20029;-74
2022/10/01 03:36:07;;;;;;;4.65;0.90;;;;;;;;;;5050196;28;20086;-72
2022/10/01 03:38:33;;;;;;;2.58;1.10;;;;;;;;;;5050348;28;20061;-72
2022/10/01 03:40:58;;;;;;;2.85;0.98;;;;;;;;;;5049534;28;20048;-73
2022/10/01 03:43:27;;;;;;;2.90;0.90;;;;;;;;;;5049928;28;20040;-72
2022/10/01 03:45:53;;;;;;;3.70;0.88;;;;;;;;;;5050428;28;20025;-73
2022/10/01 03:48:18;;;;;;;1.55;0.80;;;;;;;;;;5049889;28;20017;-72
2022/10/01 03:50:58;;;;;;;3.05;1.25;;;;;;;;;;5050096;28;20028;-73
2022/10/01 03:53:26;;;;;;;3.90;0.88;;;;;;;;;;5049816;28;20028;-74
2022/10/01 03:55:52;;;;;;;3.33;0.90;;;;;;;;;;5032493;28;20087;-74
2022/10/01 03:58:17;;;;;;;1.60;0.80;;;;;;;;;;5050031;28;20459;-77
2022/10/01 04:00:45;;;;;;;2.47;0.80;;;;;;;;;;5050094;28;20072;-76
2022/10/01 04:03:11;;;;;;;2.03;0.93;;;;;;;;;;5049489;28;20029;-76
2022/10/01 04:05:36;;;;;;;2.97;0.90;;;;;;;;;;5050178;28;20479;-74
2022/10/01 04:08:01;;;;;;;3.60;0.82;;;;;;;;;;5049655;28;20029;-75
2022/10/01 04:10:27;;;;;;;3.15;0.90;;;;;;;;;;5050054;28;20040;-74
2022/10/01 04:12:53;;;;;;;1.73;0.80;;;;;;;;;;5049710;28;20111;-74
2022/10/01 04:15:19;;;;;;;3.22;0.90;;;;;;;;;;5050080;28;20040;-74
2022/10/01 04:17:44;;;;;;;3.72;0.95;;;;;;;;;;5049603;28;20025;-75
2022/10/01 04:20:09;;;;;;;3.92;0.93;;;;;;;;;;5050259;28;20025;-75
2022/10/01 04:22:40;;;;;;;1.30;0.70;;;;;;;;;;5049381;28;20024;-77
2022/10/01 04:25:09;;;;;;;4.00;1.10;;;;;;;;;;5049727;28;20049;-76
2022/10/01 04:27:34;;;;;;;2.75;1.00;;;;;;;;;;5049665;28;20051;-75
2022/10/01 04:30:00;;;;;;;2.60;1.00;;;;;;;;;;5050015;28;20025;-76
2022/10/01 04:32:25;;;;;;;2.60;1.00;;;;;;;;;;5049481;28;20025;-74
2022/10/01 04:34:53;;;;;;;3.58;1.05;;;;;;;;;;5049872;28;20025;-76
2022/10/01 04:37:19;;;;;;;3.03;0.98;;;;;;;;;;5049680;28;20046;-77
2022/10/01 04:39:45;;;;;;;4.07;1.00;;;;;;;;;;5049583;28;20077;-75
2022/10/01 04:42:12;;;;;;;2.88;0.80;;;;;;;;;;5049299;28;20067;-74
2022/10/01 04:44:38;;;;;;;5.18;1.00;;;;;;;;;;5049534;28;20025;-75
2022/10/01 04:47:03;;;;;;;1.73;0.80;;;;;;;;;;5049451;28;20079;-74
2022/10/01 04:49:31;;;;;;;1.83;0.75;;;;;;;;;;5049763;28;20032;-75
2022/10/01 04:51:56;;;;;;;2.97;0.90;;;;;;;;;;5051933;28;20029;-75
2022/10/01 04:54:21;;;;;;;1.33;0.80;;;;;;;;;;5035304;28;20029;-75
2022/10/01 04:56:47;;;;;;;2.47;1.00;;;;;;;;;;5053415;28;20044;-75
2022/10/01 04:59:12;;;;;;;4.55;0.90;;;;;;;;;;5035262;28;20524;-75
2022/10/01 05:01:37;;;;;;;1.40;0.80;;;;;;;;;;5052933;28;20025;-75
2022/10/01 05:04:03;;;;;;;3.20;0.90;;;;;;;;;;5034789;28;20039;-75
2022/10/01 05:06:28;;;;;;;1.15;0.75;;;;;;;;;;5053411;28;20633;-76
2022/10/01 05:08:54;;;;;;;3.50;0.88;;;;;;;;;;5052964;28;20028;-75
2022/10/01 05:11:19;;;;;;;2.92;0.80;;;;;;;;;;5053114;28;20052;-74
2022/10/01 05:13:44;;;;;;;3.03;0.90;;;;;;;;;;5052694;28;20079;-74
2022/10/01 05:16:10;;;;;;;1.90;0.98;;;;;;;;;;5052728;28;20112;-74
2022/10/01 05:18:39;;;;;;;3.85;1.00;;;;;;;;;;5052889;28;20464;-74
2022/10/01 05:21:05;;;;;;;3.00;1.10;;;;;;;;;;5052998;28;20558;-72
2022/10/01 05:23:32;;;;;;;2.35;0.85;;;;;;;;;;5052680;28;20487;-74
2022/10/01 05:25:57;;;;;;;3.17;0.95;;;;;;;;;;5053214;28;20033;-74
2022/10/01 05:28:23;;;;;;;2.35;1.00;;;;;;;;;;5052610;28;20615;-75
2022/10/01 05:30:49;;;;;;;2.10;0.85;;;;;;;;;;5052697;28;20025;-76
2022/10/01 05:33:15;;;;;;;2.50;0.90;;;;;;;;;;5034402;28;20049;-74
2022/10/01 05:35:41;;;;;;;3.05;0.93;;;;;;;;;;5052730;28;20056;-75
2022/10/01 05:38:06;;;;;;;3.33;0.98;;;;;;;;;;5052411;28;20033;-75
2022/10/01 05:40:32;;;;;;;1.60;0.80;;;;;;;;;;5052673;28;20090;-75
2022/10/01 05:42:59;;;;;;;2.45;0.90;;;;;;;;;;5034535;28;20090;-74
2022/10/01 05:45:26;;;;;;;2.78;0.75;;;;;;;;;;5052503;28;20140;-76
2022/10/01 05:48:03;;;;;;;3.72;0.80;;;;;;;;;;5052113;28;20040;-75
2022/10/01 05:50:31;;;;;;;2.78;0.88;;;;;;;;;;5052598;28;20025;-74
2022/10/01 05:52:58;;;;;;;6.82;1.27;;;;;;;;;;5051928;28;20040;-75
2022/10/01 05:55:23;;;;;;;1.63;0.82;;;;;;;;;;5052193;28;20496;-75
2022/10/01 05:57:56;;;;;;;1.55;0.73;;;;;;;;;;5052135;28;20017;-75
2022/10/01 06:00:22;;;;;;;5.43;1.00;;;;;;;;;;5052410;28;20027;-74
2022/10/01 06:02:51;;;;;;;3.65;1.02;;;;;;;;;;5033097;28;20036;-75
2022/10/01 06:05:18;;;;;;;3.42;0.93;;;;;;;;;;5051987;28;20021;-74
2022/10/01 06:07:43;;;;;;;3.50;0.90;;;;;;;;;;5051893;28;20018;-74
2022/10/01 06:10:09;;;;;;;4.65;0.90;;;;;;;;;;5051890;28;20025;-74
2022/10/01 06:12:34;;;;;;;2.25;0.90;;;;;;;;;;5051952;28;20029;-74
2022/10/01 06:14:59;;;;;;;2.38;1.00;;;;;;;;;;5051786;28;20033;-75
2022/10/01 06:17:25;;;;;;;2.13;1.10;;;;;;;;;;5051846;28;20052;-75
2022/10/01 06:19:50;;;;;;;6.20;0.85;;;;;;;;;;5051738;28;20021;-76
2022/10/01 06:22:16;;;;;;;2.20;0.90;;;;;;;;;;5051805;28;20056;-75
2022/10/01 06:24:42;;;;;;;3.22;0.77;;;;;;;;;;5051213;28;20025;-73
2022/10/01 06:27:09;;;;;;;2.90;1.00;;;;;;;;;;5051671;28;20403;-74
2022/10/01 06:29:34;;;;;;;2.70;0.80;;;;;;;;;;5033596;28;20043;-73
2022/10/01 06:32:00;;;;;;;1.88;0.80;;;;;;;;;;5051778;28;20028;-73
2022/10/01 06:34:25;;;;;;;2.83;1.00;;;;;;;;;;5051282;28;20473;-73
2022/10/01 06:36:51;;;;;;;3.08;0.80;;;;;;;;;;5051763;28;20029;-74
2022/10/01 06:39:16;;;;;;;2.58;0.90;;;;;;;;;;5033495;28;20025;-74
2022/10/01 06:41:42;;;;;;;2.22;1.00;;;;;;;;;;5032974;28;20048;-74
2022/10/01 06:44:08;;;;;;;4.07;0.98;;;;;;;;;;5050911;28;20029;-74
2022/10/01 06:46:34;;;;;;;2.75;0.90;;;;;;;;;;5051273;28;20040;-74
2022/10/01 06:48:59;;;;;;;1.92;0.88;;;;;;;;;;5051261;28;20401;-74
2022/10/01 06:54:09;;;;;;;2.95;0.90;;;;;;;;;;5050904;28;20090;-74
2022/10/01 06:56:35;;;;;;;3.30;1.00;;;;;;;;;;5051016;28;20028;-75
2022/10/01 06:59:01;;;;;;;1.85;1.00;;;;;;;;;;5050931;28;20052;-75
2022/10/01 07:01:27;;;;;;;3.15;0.80;;;;;;;;;;5050882;28;20028;-78
2022/10/01 07:03:53;;;;;;;2.38;0.80;;;;;;;;;;5050410;28;20025;-75
2022/10/01 07:06:18;;;;;;;3.03;0.93;;;;;;;;;;5051045;28;20090;-75
2022/10/01 07:08:47;;;;;;;4.28;0.98;;;;;;;;;;5050802;28;20563;-76
2022/10/01 07:11:13;;;;;;;2.15;0.70;;;;;;;;;;5050934;28;20017;-75
2022/10/01 07:13:38;;;;;;;2.53;0.80;;;;;;;;;;5050356;28;20438;-74
2022/10/01 07:16:04;;;;;;;2.35;0.90;;;;;;;;;;5050653;28;20052;-75
2022/10/01 07:18:30;;;;;;;2.15;0.80;;;;;;;;;;5050281;28;20036;-76
2022/10/01 07:20:56;;;;;;;4.45;0.90;;;;;;;;;;5050615;28;20425;-78
2022/10/01 07:23:23;;;;;;;2.13;0.88;;;;;;;;;;5050484;28;20033;-77
2022/10/01 07:25:49;;;;;;;5.45;0.90;;;;;;;;;;5050269;28;20372;-76
2022/10/01 07:28:18;;;;;;;4.22;1.02;;;;;;;;;;5050659;28;20025;-76
2022/10/01 07:31:06;;;;;;;5.18;0.80;;;;;;;;;;5050372;28;20151;-76
2022/10/01 07:33:32;;;;;;;2.17;0.65;;;;;;;;;;5031829;28;20076;-74
2022/10/01 07:36:06;;;;;;;3.92;0.95;;;;;;;;;;5049976;28;20078;-75
2022/10/01 07:38:32;;;;;;;4.40;0.85;;;;;;;;;;5050280;28;20040;-75
2022/10/01 07:40:58;;;;;;;1.55;0.65;;;;;;;;;;5050169;28;20520;-75
2022/10/01 07:43:24;;;;;;;3.50;0.70;;;;;;;;;;5050446;28;20029;-75
2022/10/01 07:45:53;;;;;;;3.00;0.80;;;;;;;;;;5050086;28;20392;-76
2022/10/01 07:48:20;;;;;;;3.78;0.90;;;;;;;;;;5050034;28;20048;-74
2022/10/01 07:50:46;;;;;;;3.75;0.80;;;;;;;;;;5049858;28;20025;-75
2022/10/01 07:53:11;;;;;;;3.00;0.70;;;;;;;;;;5050242;28;20025;-72
2022/10/01 07:55:37;;;;;;;2.35;0.80;;;;;;;;;;5049791;28;20534;-74
2022/10/01 07:58:03;;;;;;;1.77;0.80;;;;;;;;;;5050284;28;20055;-76
2022/10/01 08:00:30;;;;;;;1.67;0.75;;;;;;;;;;5049845;28;20440;-75
2022/10/01 08:02:56;;;;;;;2.08;0.80;;;;;;;;;;5049973;28;20033;-76
2022/10/01 08:05:27;;;;;;;1.80;0.75;;;;;;;;;;5031846;28;20112;-74
2022/10/01 08:07:57;;;;;;;5.32;1.00;;;;;;;;;;5049948;28;20021;-75
2022/10/01 08:10:23;;;;;;;2.17;0.70;;;;;;;;;;5049691;28;20018;-74
2022/10/01 08:12:48;;;;;;;3.35;0.85;;;;;;;;;;5049876;28;20032;-74
2022/10/01 08:15:15;;;;;;;2.00;0.80;;;;;;;;;;5049602;28;20021;-75
2022/10/01 08:17:41;;;;;;;1.35;0.70;;;;;;;;;;5050007;28;20056;-74
2022/10/01 08:20:09;;;;;;;4.28;0.90;;;;;;;;;;5049742;28;20068;-74
2022/10/01 08:22:35;;;;;;;5.35;0.80;;;;;;;;;;5049722;28;20587;-75
2022/10/01 08:25:01;;;;;;;2.92;0.65;;;;;;;;;;5049596;28;20029;-76
2022/10/01 08:27:27;;;;;;;2.55;0.80;;;;;;;;;;5053003;28;20104;-75
2022/10/01 08:29:53;;;;;;;1.98;0.77;;;;;;;;;;5053602;28;20032;-75
2022/10/01 08:32:19;;;;;;;3.63;1.08;;;;;;;;;;5053641;28;20120;-75
2022/10/01 08:34:45;;;;;;;5.22;0.90;;;;;;;;;;5053609;28;20033;-75
2022/10/01 08:37:11;;;;;;;2.25;0.80;;;;;;;;;;5053860;28;20135;-74
2022/10/01 08:39:36;;;;;;;3.35;0.98;;;;;;;;;;5053483;28;20100;-73
2022/10/01 08:42:38;;;;;;;4.00;0.98;;;;;;;;;;5053933;28;20388;-74
2022/10/01 08:45:10;;;;;;;3.38;0.90;;;;;;;;;;5035275;28;20056;-75
2022/10/01 08:47:48;;;;;;;2.95;1.00;;;;;;;;;;5053402;28;20086;-72
2022/10/01 08:50:28;;;;;;;3.72;0.95;;;;;;;;;;5053193;28;20108;-73
2022/10/01 08:53:01;;;;;;;3.28;1.00;;;;;;;;;;5053702;28;20108;-74
2022/10/01 08:55:34;;;;;;;3.58;0.93;;;;;;;;;;5052894;28;20060;-75
2022/10/01 08:58:03;;;;;;;2.80;0.93;;;;;;;;;;5053472;28;20071;-75
2022/10/01 09:00:31;;;;;;;4.53;0.80;;;;;;;;;;5053372;28;20068;-76
2022/10/01 09:03:02;;;;;;;3.85;1.02;;;;;;;;;;5052667;28;20094;-73
2022/10/01 09:05:46;;;;;;;3.08;0.90;;;;;;;;;;5052702;28;20107;-77
2022/10/01 09:08:15;;;;;;;2.55;0.88;;;;;;;;;;5053140;28;20473;-76
2022/10/01 09:10:55;;;;;;;5.25;0.80;;;;;;;;;;5052991;28;20025;-74
2022/10/01 09:13:38;;;;;;;3.95;0.80;;;;;;;;;;5053259;28;20184;-75
2022/10/01 09:16:36;;;;;;;4.15;1.08;;;;;;;;;;5034717;28;20519;-75
2022/10/01 09:19:19;;;;;;;3.55;0.80;;;;;;;;;;5052876;28;20115;-73
2022/10/01 09:22:03;;;;;;;1.88;0.73;;;;;;;;;;5052636;28;20036;-73
2022/10/01 09:24:42;;;;;;;3.58;0.93;;;;;;;;;;5052686;28;20033;-73
2022/10/01 09:27:14;;;;;;;4.75;0.70;;;;;;;;;;5052928;28;20213;-75
2022/10/01 09:30:03;;;;;;;3.25;0.88;;;;;;;;;;5034975;28;20120;-74
2022/10/01 09:32:44;;;;;;;4.70;1.10;;;;;;;;;;5038107;28;20040;-73
2022/10/01 09:35:53;;;;;;;5.28;0.90;;;;;;;;;;5052347;28;20056;-75
2022/10/01 09:38:31;;;;;;;3.92;0.90;;;;;;;;;;5051181;28;20393;-75
2022/10/01 09:40:57;;;;;;;4.90;1.15;;;;;;;;;;5052201;28;20041;-75
2022/10/01 09:43:32;;;;;;;7.93;0.98;;;;;;;;;;5052535;28;20103;-75
2022/10/01 09:45:58;;;;;;;3.50;0.80;;;;;;;;;;5052270;28;20032;-74
2022/10/01 09:48:54;;;;;;;4.07;0.60;;;;;;;;;;5052350;28;20017;-73
2022/10/01 09:51:37;;;;;;;5.20;0.82;;;;;;;;;;5052329;28;20087;-73
2022/10/01 09:54:14;;;;;;;4.40;0.65;;;;;;;;;;5052158;28;20078;-73
2022/10/01 09:56:44;;;;;;;4.45;0.80;;;;;;;;;;5051788;28;20029;-73
2022/10/01 09:59:49;;;;;;;6.28;1.13;;;;;;;;;;5052369;28;20053;-73
2022/10/01 10:02:30;;;;;;;3.00;0.77;;;;;;;;;;5010173;28;20051;-73
2022/10/01 10:05:14;;;;;;;9.57;1.00;;;;;;;;;;5034301;28;20048;-73
2022/10/01 10:07:45;;;;;;;10.45;1.10;;;;;;;;;;5052141;28;20040;-73
2022/10/01 10:10:18;;;;;;;6.97;0.90;;;;;;;;;;5051940;28;20029;-73
2022/10/01 10:12:44;;;;;;;3.58;0.70;;;;;;;;;;5051712;28;20036;-73
2022/10/01 10:15:20;;;;;;;2.65;0.50;;;;;;;;;;5051555;28;20029;-73
2022/10/01 10:17:49;;;;;;;3.35;0.73;;;;;;;;;;5051980;28;20065;-72
2022/10/01 10:20:36;;;;;;;2.65;0.70;;;;;;;;;;5051823;28;20033;-73
2022/10/01 10:23:17;;;;;;;2.20;0.60;;;;;;;;;;5052001;28;20078;-73
2022/10/01 10:25:53;;;;;;;2.90;0.90;;;;;;;;;;5051130;28;20032;-73
2022/10/01 10:28:22;;;;;;;3.90;0.80;;;;;;;;;;5051425;28;20465;-74
2022/10/01 10:30:52;;;;;;;2.17;0.80;;;;;;;;;;5051174;28;20116;-73
2022/10/01 10:33:21;;;;;;;1.70;0.32;;;;;;;;;;5051503;28;20029;-73
2022/10/01 10:36:03;;;;;;;2.35;0.50;;;;;;;;;;5051374;28;20047;-74
2022/10/01 10:38:31;;;;;;;2.15;0.70;;;;;;;;;;5051538;28;20045;-73
2022/10/01 10:40:57;;;;;;;2.15;0.70;;;;;;;;;;5051371;28;20041;-74
2022/10/01 10:43:26;;;;;;;4.88;0.52;;;;;;;;;;5051384;28;20028;-74
2022/10/01 10:45:56;;;;;;;7.18;1.02;;;;;;;;;;5050955;28;20029;-73
2022/10/01 10:48:27;;;;;;;1.70;0.47;;;;;;;;;;5050940;28;20079;-74
2022/10/01 10:50:59;;;;;;;1.85;0.70;;;;;;;;;;5051199;28;20117;-74
2022/10/01 10:53:27;;;;;;;3.58;0.68;;;;;;;;;;5051234;28;20491;-74
2022/10/01 10:55:59;;;;;;;6.13;0.70;;;;;;;;;;5050881;28;20033;-75
2022/10/01 10:58:27;;;;;;;3.75;0.80;;;;;;;;;;5033274;28;20024;-74
2022/10/01 11:00:56;;;;;;;1.95;0.68;;;;;;;;;;5051187;28;20115;-73
2022/10/01 11:03:24;;;;;;;3.45;0.73;;;;;;;;;;5050616;28;20079;-74
2022/10/01 11:05:51;;;;;;;2.92;0.68;;;;;;;;;;5050789;28;20083;-73
2022/10/01 11:08:26;;;;;;;2.80;0.70;;;;;;;;;;5050922;28;20369;-73
2022/10/01 11:11:20;;;;;;;1.33;0.73;;;;;;;;;;5051006;28;20025;-73
2022/10/01 11:14:16;;;;;;;3.97;0.70;;;;;;;;;;5050962;28;20100;-75
2022/10/01 11:17:11;;;;;;;1.55;0.50;;;;;;;;;;5050340;28;20044;-74
2022/10/01 11:19:37;;;;;;;4.38;0.70;;;;;;;;;;5050710;28;20484;-72
2022/10/01 11:22:52;;;;;;;1.33;0.47;;;;;;;;;;5032444;28;20028;-75
2022/10/01 11:25:22;;;;;;;4.70;1.10;;;;;;;;;;4962118;28;20070;-74
2022/10/01 11:28:06;;;;;;;3.97;1.00;;;;;;;;;;5050506;28;20082;-76
2022/10/01 11:30:54;;;;;;;4.47;0.70;;;;;;;;;;5050833;28;20021;-75
2022/10/01 11:33:43;;;;;;;3.92;0.63;;;;;;;;;;5050171;28;20091;-75
2022/10/01 11:36:20;;;;;;;5.32;0.80;;;;;;;;;;5050317;28;20029;-75
2022/10/01 11:38:59;;;;;;;2.75;0.73;;;;;;;;;;5050147;28;20029;-76
2022/10/01 11:42:09;;;;;;;2.72;0.70;;;;;;;;;;5049750;28;20110;-73
2022/10/01 11:45:00;;;;;;;1.45;0.70;;;;;;;;;;5050328;28;20040;-76
2022/10/01 11:47:28;;;;;;;3.60;0.63;;;;;;;;;;5049678;28;20040;-74
2022/10/01 11:50:15;;;;;;;1.75;0.57;;;;;;;;;;5050337;28;20036;-76
2022/10/01 11:52:51;;;;;;;2.45;0.60;;;;;;;;;;5050057;28;20025;-77
2022/10/01 11:58:51;;;;;;;3.13;0.68;;;;;;;;;;5045334;28;20036;-75
2022/10/01 12:01:23;;;;;;;1.67;0.60;;;;;;;;;;5031471;28;20032;-76
2022/10/01 12:03:52;;;;;;;4.63;1.00;;;;;;;;;;5050000;28;20048;-75
2022/10/01 12:06:22;;;;;;;5.00;1.30;;;;;;;;;;5049861;28;20036;-75
2022/10/01 12:08:57;;;;;;;4.13;0.98;;;;;;;;;;5050113;28;20060;-75
2022/10/01 12:11:35;;;;;;;2.05;0.80;;;;;;;;;;5050115;28;20058;-74
2022/10/01 12:14:08;;;;;;;1.52;0.60;;;;;;;;;;5049774;28;20025;-76
2022/10/01 12:16:41;;;;;;;2.38;0.70;;;;;;;;;;5049631;28;20100;-77
2022/10/01 12:19:10;;;;;;;1.05;0.50;;;;;;;;;;5049748;28;20037;-76
2022/10/01 12:21:44;;;;;;;1.30;0.50;;;;;;;;;;5049816;28;20083;-76
2022/10/01 12:24:25;;;;;;;2.28;0.60;;;;;;;;;;5050043;28;20053;-74
2022/10/01 12:26:59;;;;;;;;;;;;;;;;;;5050090;28;20017;-75
2022/10/01 12:30:00;;;;;;;2.22;0.60;;;;;;;;;;5031824;28;20346;-75
2022/10/01 12:33:04;;;;;;;1.45;0.50;;;;;;;;;;5031639;28;20045;-76
2022/10/01 12:35:40;;;;;;;1.85;0.45;;;;;;;;;;5014495;28;20052;-76
2022/10/01 12:38:30;;;;;;;1.88;0.65;;;;;;;;;;5049700;28;20126;-75
2022/10/01 12:41:11;;;;;;;;;;;;;;;;;;5050324;28;20041;-74
2022/10/01 12:44:13;;;;;;;3.22;0.50;;;;;;;;;;5049508;28;19919;-76
2022/10/01 12:46:56;;;;;;;1.05;0.30;;;;;;;;;;5049492;28;20040;-75
2022/10/01 12:49:50;;;;;;;1.35;0.35;;;;;;;;;;5049295;28;20029;-77
2022/10/01 12:52:27;;;;;;;2.55;0.55;;;;;;;;;;4995712;28;20049;-77
2022/10/01 12:54:58;;;;;;;0.68;0.40;;;;;;;;;;5049516;28;20021;-76
2022/10/01 12:57:39;;;;;;;3.40;0.68;;;;;;;;;;5031357;28;20037;-77
2022/10/01 13:00:13;;;;;;;2.30;0.45;;;;;;;;;;5049791;28;20116;-77
2022/10/01 13:03:07;;;;;;;0.60;0.35;;;;;;;;;;5049107;28;20052;-77
2022/10/01 13:05:47;;;;;;;0.90;0.40;;;;;;;;;;5049332;28;20021;-77
2022/10/01 13:08:16;;;;;;;1.13;0.30;;;;;;;;;;5049246;28;20032;-77
2022/10/01 13:11:04;;;;;;;2.88;0.55;;;;;;;;;;5031742;28;20029;-74
2022/10/01 13:13:33;;;;;;;1.95;0.30;;;;;;;;;;5052564;28;20033;-74
2022/10/01 13:16:07;;;;;;;1.55;0.30;;;;;;;;;;5053106;28;20017;-74
2022/10/01 13:18:34;;;;;;;2.83;0.43;;;;;;;;;;5052997;28;20078;-76
2022/10/01 13:21:22;;;;;;;0.98;0.38;;;;;;;;;;5053019;28;20078;-73
2022/10/01 13:24:19;;;;;;;1.25;0.40;;;;;;;;;;5052575;28;20090;-74
2022/10/01 13:26:47;;;;;;;1.55;0.50;;;;;;;;;;5052825;28;20232;-75
2022/10/01 13:29:31;;;;;;;1.55;0.35;;;;;;;;;;5052587;28;20029;-74
2022/10/01 13:31:59;;;;;;;0.32;0.20;;;;;;;;;;5052735;28;20025;-74
2022/10/01 13:34:39;;;;;;;1.95;0.38;;;;;;;;;;5052398;28;20094;-74
2022/10/01 13:37:17;;;;;;;2.22;0.32;;;;;;;;;;5052658;28;20056;-73
2022/10/01 13:39:44;;;;;;;2.45;0.40;;;;;;;;;;5052183;28;20091;-73
2022/10/01 13:42:24;;;;;;;0.70;0.30;;;;;;;;;;5052424;28;20017;-74
2022/10/01 13:44:57;;;;;;;1.38;0.30;;;;;;;;;;5052492;28;20025;-73
2022/10/01 13:47:23;;;;;;;0.73;0.30;;;;;;;;;;5052605;28;20095;-73
2022/10/01 13:50:05;;;;;;;1.33;0.40;;;;;;;;;;5052359;28;20051;-74
2022/10/01 13:52:31;;;;;;;0.82;0.40;;;;;;;;;;5052271;28;20035;-72
2022/10/01 13:55:00;;;;;;;0.90;0.40;;;;;;;;;;5052062;28;20039;-74
2022/10/01 13:57:30;;;;;;;0.88;0.30;;;;;;;;;;5052042;28;20025;-76
2022/10/01 14:00:11;;;;;;;;;;;;;;;;;;5052424;28;20484;-75
2022/10/01 14:02:39;;;;;;;1.05;0.30;;;;;;;;;;5052111;28;19917;-73
2022/10/01 14:05:43;;;;;;;2.80;0.50;;;;;;;;;;5051918;28;20059;-74
2022/10/01 14:08:30;;;;;;;0.90;0.35;;;;;;;;;;5046833;28;20037;-74
2022/10/01 14:17:51;;;;;;;2.65;0.50;;;;;;;;;;5043140;28;20696;-75
2022/10/01 14:20:29;;;;;;;3.47;0.40;;;;;;;;;;5051933;28;20506;-74
2022/10/01 14:23:20;;;;;;;1.38;0.30;;;;;;;;;;5052118;28;20396;-73
2022/10/01 14:26:03;;;;;;;1.70;0.50;;;;;;;;;;5051786;28;20511;-74
2022/10/01 14:28:36;;;;;;;1.20;0.38;;;;;;;;;;5033393;28;20021;-74
2022/10/01 14:31:05;;;;;;;0.57;0.47;;;;;;;;;;5051666;28;20488;-74
2022/10/01 14:33:40;;;;;;;1.85;0.28;;;;;;;;;;5050990;28;20546;-75
2022/10/01 14:36:19;;;;;;;1.55;0.40;;;;;;;;;;5051498;28;20033;-75
2022/10/01 14:38:45;;;;;;;1.15;0.40;;;;;;;;;;5051734;28;20021;-76
2022/10/01 14:41:23;;;;;;;2.28;0.45;;;;;;;;;;5051422;28;20037;-75
2022/10/01 14:43:48;;;;;;;0.80;0.32;;;;;;;;;;5051294;28;20040;-76
2022/10/01 14:46:16;;;;;;;1.75;0.40;;;;;;;;;;5051526;28;20029;-75
2022/10/01 14:48:42;;;;;;;1.23;0.45;;;;;;;;;;5050800;28;20024;-76
2022/10/01 14:51:29;;;;;;;1.60;0.40;;;;;;;;;;5051068;28;20131;-74
2022/10/01 14:53:58;;;;;;;1.88;0.50;;;;;;;;;;5033028;28;20020;-75
2022/10/01 14:56:24;;;;;;;1.60;0.50;;;;;;;;;;5033245;28;20021;-75
2022/10/01 14:59:01;;;;;;;1.60;0.30;;;;;;;;;;5051355;28;20447;-74
2022/10/01 15:01:27;;;;;;;2.05;0.57;;;;;;;;;;5050898;28;20032;-73
2022/10/01 15:03:53;;;;;;;0.98;0.30;;;;;;;;;;5051035;28;20044;-74
2022/10/01 15:06:21;;;;;;;1.75;0.35;;;;;;;;;;5051074;28;20029;-74
2022/10/01 15:08:49;;;;;;;1.20;0.63;;;;;;;;;;5050517;28;20032;-74
2022/10/01 15:11:23;;;;;;;1.45;0.50;;;;;;;;;;5050741;28;20443;-74
2022/10/01 15:13:51;;;;;;;1.70;0.50;;;;;;;;;;5050707;28;20029;-76
2022/10/01 15:16:27;;;;;;;0.65;0.30;;;;;;;;;;5051107;28;20082;-74
2022/10/01 15:18:59;;;;;;;1.27;0.50;;;;;;;;;;5050522;28;20106;-74
2022/10/01 15:21:30;;;;;;;1.27;0.40;;;;;;;;;;5032759;28;20029;-74
2022/10/01 15:23:56;;;;;;;1.70;0.47;;;;;;;;;;5050268;28;20451;-74
2022/10/01 15:26:26;;;;;;;1.92;0.32;;;;;;;;;;5050850;28;20029;-76
2022/10/01 15:29:05;;;;;;;1.75;0.50;;;;;;;;;;5050464;28;20025;-74